createdAt,value
2023-01-13T00:01:30.620Z,5.11
2023-01-13T00:03:58.546Z,5.09
2023-01-13T00:06:26.559Z,5.09
2023-01-13T00:08:54.918Z,5.10
2023-01-13T00:11:23.486Z,5.09
2023-01-13T00:13:51.571Z,5.10
2023-01-13T00:16:20.301Z,5.10
2023-01-13T00:18:48.949Z,5.08
2023-01-13T00:21:23.218Z,5.10
2023-01-13T00:23:55.500Z,5.11
2023-01-13T00:26:27.090Z,5.07
2023-01-13T00:28:59.627Z,5.09
2023-01-13T00:31:28.469Z,5.06
2023-01-13T00:33:58.011Z,5.04
2023-01-13T00:36:26.748Z,5.04
2023-01-13T00:38:55.127Z,5.04
2023-01-13T00:41:24.961Z,5.05
2023-01-13T00:43:53.473Z,5.04
2023-01-13T00:46:22.789Z,5.04
2023-01-13T00:48:51.589Z,5.02
2023-01-13T00:51:21.535Z,5.03
2023-01-13T00:53:51.719Z,5.01
2023-01-13T00:56:38.576Z,5.02
2023-01-13T00:59:11.253Z,5.00
2023-01-13T01:01:40.165Z,5.03
2023-01-13T01:04:08.603Z,5.03
2023-01-13T01:06:36.828Z,5.03
2023-01-13T01:09:05.853Z,5.04
2023-01-13T01:11:34.935Z,5.02
2023-01-13T01:14:04.105Z,5.01
2023-01-13T01:16:34.255Z,5.00
2023-01-13T01:19:03.710Z,4.98
2023-01-13T01:21:32.285Z,5.00
2023-01-13T01:24:02.636Z,4.98
2023-01-13T01:26:31.917Z,4.95
2023-01-13T01:29:02.397Z,4.95
2023-01-13T01:31:32.602Z,4.92
2023-01-13T01:34:01.827Z,4.91
2023-01-13T01:36:30.501Z,4.90
2023-01-13T01:39:00.009Z,4.93
2023-01-13T01:41:31.773Z,4.93
2023-01-13T01:44:20.083Z,4.95
2023-01-13T01:46:48.110Z,4.96
2023-01-13T01:49:33.482Z,4.96
2023-01-13T01:52:25.098Z,4.96
2023-01-13T01:55:07.042Z,4.95
2023-01-13T01:57:48.055Z,4.93
2023-01-13T02:00:16.286Z,4.92
2023-01-13T02:02:48.140Z,4.93
2023-01-13T02:05:16.297Z,4.92
2023-01-13T02:07:47.658Z,4.93
2023-01-13T02:10:19.874Z,4.91
2023-01-13T02:12:49.886Z,4.93
2023-01-13T02:15:22.385Z,4.92
2023-01-13T02:18:29.504Z,4.91
2023-01-13T02:21:20.366Z,4.92
2023-01-13T02:24:35.373Z,4.94
2023-01-13T02:27:06.222Z,4.93
2023-01-13T02:30:18.870Z,4.93
2023-01-13T02:32:53.336Z,4.93
2023-01-13T02:35:24.965Z,4.93
2023-01-13T02:37:54.812Z,4.91
2023-01-13T02:40:37.327Z,4.91
2023-01-13T02:43:32.121Z,4.88
2023-01-13T02:46:15.709Z,4.87
2023-01-13T02:48:47.910Z,4.86
2023-01-13T02:51:20.853Z,4.85
2023-01-13T02:54:07.719Z,4.85
2023-01-13T02:56:40.185Z,4.87
2023-01-13T02:59:09.559Z,4.88
2023-01-13T03:01:37.946Z,4.88
2023-01-13T03:04:35.906Z,4.91
2023-01-13T03:07:18.007Z,4.94
2023-01-13T03:09:59.614Z,4.97
2023-01-13T03:13:02.599Z,4.98
2023-01-13T03:15:59.681Z,5.00
2023-01-13T03:18:47.122Z,5.03
2023-01-13T03:21:36.297Z,5.00
2023-01-13T03:24:14.061Z,4.96
2023-01-13T03:26:56.761Z,4.95
2023-01-13T03:29:58.825Z,4.96
2023-01-13T03:32:37.367Z,4.94
2023-01-13T03:35:26.541Z,4.92
2023-01-13T03:38:03.376Z,4.91
2023-01-13T03:40:40.519Z,4.88
2023-01-13T03:43:38.373Z,4.90
2023-01-13T03:46:17.766Z,4.92
2023-01-13T03:48:46.966Z,4.90
2023-01-13T03:51:18.455Z,4.90
2023-01-13T03:53:53.674Z,4.90
2023-01-13T03:56:35.445Z,4.90
2023-01-13T03:59:08.123Z,4.91
2023-01-13T04:02:51.390Z,4.89
2023-01-13T04:05:19.927Z,4.87
2023-01-13T04:08:07.781Z,4.84
2023-01-13T04:10:58.359Z,4.87
2023-01-13T04:13:30.410Z,4.87
2023-01-13T04:15:59.896Z,4.86
2023-01-13T04:18:30.855Z,4.85
2023-01-13T04:21:01.234Z,4.85
2023-01-13T04:23:29.750Z,4.87
2023-01-13T04:25:57.581Z,4.82
2023-01-13T04:28:26.369Z,4.82
2023-01-13T04:34:38.317Z,4.77
2023-01-13T04:37:06.283Z,4.74
2023-01-13T04:39:34.169Z,4.69
2023-01-13T04:42:02.719Z,4.67
2023-01-13T04:44:35.176Z,4.67
2023-01-13T04:47:04.983Z,4.64
2023-01-13T04:49:33.822Z,4.61
2023-01-13T04:52:03.895Z,4.64
2023-01-13T04:54:32.414Z,4.65
2023-01-13T04:57:00.522Z,4.66
2023-01-13T04:59:28.433Z,4.67
2023-01-13T05:01:56.584Z,4.68
2023-01-13T05:04:25.063Z,4.69
2023-01-13T05:06:53.143Z,4.70
2023-01-13T05:09:20.995Z,4.68
2023-01-13T05:12:07.529Z,4.70
2023-01-13T05:14:54.343Z,4.69
2023-01-13T05:17:24.584Z,4.67
2023-01-13T05:19:52.521Z,4.66
2023-01-13T05:22:38.988Z,4.66
2023-01-13T05:25:21.722Z,4.65
2023-01-13T05:27:50.990Z,4.62
2023-01-13T05:30:21.036Z,4.62
2023-01-13T05:32:49.329Z,4.62
2023-01-13T05:35:17.358Z,4.65
2023-01-13T05:37:46.555Z,4.63
2023-01-13T05:40:35.616Z,4.62
2023-01-13T05:43:25.836Z,4.64
2023-01-13T05:46:02.517Z,4.64
2023-01-13T05:48:33.716Z,4.64
2023-01-13T05:51:02.976Z,4.64
2023-01-13T05:53:31.304Z,4.69
2023-01-13T05:55:59.725Z,4.66
2023-01-13T05:58:28.120Z,4.68
2023-01-13T06:01:04.359Z,4.70
2023-01-13T06:03:32.633Z,4.71
2023-01-13T06:06:02.248Z,4.69
2023-01-13T06:08:31.569Z,4.71
2023-01-13T06:10:59.609Z,4.72
2023-01-13T06:13:28.014Z,4.72
2023-01-13T06:15:57.965Z,4.74
2023-01-13T06:18:27.182Z,4.76
2023-01-13T06:20:56.002Z,4.74
2023-01-13T06:23:24.230Z,4.75
2023-01-13T06:25:59.854Z,4.79
2023-01-13T06:28:27.876Z,4.78
2023-01-13T06:30:59.921Z,4.80
2023-01-13T06:33:32.728Z,4.80
2023-01-13T06:36:06.274Z,4.80
2023-01-13T06:38:40.800Z,4.82
2023-01-13T06:41:09.283Z,4.84
2023-01-13T06:43:39.104Z,4.85
2023-01-13T06:46:07.085Z,4.89
2023-01-13T06:48:35.961Z,4.88
2023-01-13T06:51:05.447Z,4.92
2023-01-13T06:53:33.288Z,4.93
2023-01-13T06:56:01.221Z,4.93
2023-01-13T06:58:29.349Z,4.94
2023-01-13T07:01:00.504Z,4.99
2023-01-13T07:03:28.623Z,5.01
2023-01-13T07:05:57.784Z,5.01
2023-01-13T07:08:25.895Z,5.02
2023-01-13T07:10:54.645Z,5.00
2023-01-13T07:13:41.451Z,5.01
2023-01-13T07:16:10.168Z,5.03
2023-01-13T07:18:38.535Z,5.02
2023-01-13T07:21:09.396Z,4.99
2023-01-13T07:23:39.875Z,5.01
2023-01-13T07:26:09.411Z,5.02
2023-01-13T07:28:38.998Z,5.06
2023-01-13T07:31:14.899Z,5.08
2023-01-13T07:33:43.128Z,5.10
2023-01-13T07:36:11.604Z,5.10
2023-01-13T07:38:39.982Z,5.12
2023-01-13T07:41:30.189Z,5.15
2023-01-13T07:43:58.141Z,5.17
2023-01-13T07:46:26.299Z,5.19
2023-01-13T07:48:54.537Z,5.20
2023-01-13T07:51:22.711Z,5.21
2023-01-13T07:53:50.730Z,5.20
2023-01-13T07:56:19.711Z,5.22
2023-01-13T07:58:51.015Z,5.26
2023-01-13T08:01:19.967Z,5.30
2023-01-13T08:03:48.086Z,5.29
2023-01-13T08:06:16.467Z,5.34
2023-01-13T08:08:44.432Z,5.38
2023-01-13T08:11:12.367Z,5.42
2023-01-13T08:13:40.332Z,5.43
2023-01-13T08:16:11.265Z,5.45
2023-01-13T08:18:39.287Z,5.50
2023-01-13T08:21:13.022Z,5.54
2023-01-13T08:23:45.565Z,5.54
2023-01-13T08:26:16.560Z,5.58
2023-01-13T08:28:45.799Z,5.60
2023-01-13T08:31:16.485Z,5.63
2023-01-13T08:33:44.758Z,5.68
2023-01-13T08:36:13.920Z,5.75
2023-01-13T08:38:42.241Z,5.78
2023-01-13T08:41:15.598Z,5.82
2023-01-13T08:43:43.627Z,5.87
2023-01-13T08:46:11.701Z,5.87
2023-01-13T08:48:39.803Z,5.90
2023-01-13T08:51:09.272Z,5.94
2023-01-13T08:53:37.280Z,6.00
2023-01-13T08:56:13.177Z,6.02
2023-01-13T08:58:41.107Z,6.01
2023-01-13T09:01:13.828Z,6.01
2023-01-13T09:03:41.996Z,6.03
2023-01-13T09:06:09.952Z,6.05
2023-01-13T09:08:38.272Z,6.06
2023-01-13T09:11:26.361Z,6.04
2023-01-13T09:13:54.318Z,6.06
2023-01-13T09:16:22.256Z,6.06
2023-01-13T09:18:50.236Z,6.04
2023-01-13T09:21:20.005Z,6.06
2023-01-13T09:23:48.331Z,6.08
2023-01-13T09:26:20.915Z,6.09
2023-01-13T09:28:48.992Z,6.10
2023-01-13T09:31:17.136Z,6.14
2023-01-13T09:34:03.902Z,6.15
2023-01-13T09:36:31.907Z,6.19
2023-01-13T09:38:59.978Z,6.21
2023-01-13T09:41:50.073Z,6.24
2023-01-13T09:44:25.738Z,6.28
2023-01-13T09:47:00.493Z,6.31
2023-01-13T09:49:37.569Z,6.34
2023-01-13T09:52:21.822Z,6.37
2023-01-13T09:54:57.889Z,6.41
2023-01-13T09:57:28.619Z,6.45
2023-01-13T09:59:58.934Z,6.47
2023-01-13T10:02:36.608Z,6.49
2023-01-13T10:05:13.986Z,6.52
2023-01-13T10:07:52.351Z,6.54
2023-01-13T10:10:34.533Z,6.60
2023-01-13T10:13:15.931Z,6.64
2023-01-13T10:15:50.529Z,6.68
2023-01-13T10:18:35.799Z,6.72
2023-01-13T10:21:35.098Z,6.76
2023-01-13T10:24:09.436Z,6.76
2023-01-13T10:26:57.773Z,6.79
2023-01-13T10:29:28.932Z,6.82
2023-01-13T10:31:59.529Z,6.82
2023-01-13T10:34:28.836Z,6.82
2023-01-13T10:37:06.932Z,6.85
2023-01-13T10:39:46.327Z,6.88
2023-01-13T10:42:21.985Z,6.91
2023-01-13T10:44:53.228Z,6.93
2023-01-13T10:47:28.513Z,6.99
2023-01-13T10:50:11.469Z,7.00
2023-01-13T10:52:54.884Z,7.06
2023-01-13T10:55:30.640Z,7.10
2023-01-13T10:58:13.121Z,7.15
2023-01-13T11:04:39.116Z,7.28
2023-01-13T11:07:29.056Z,7.28
2023-01-13T11:10:09.633Z,7.31
2023-01-13T11:12:53.596Z,7.36
2023-01-13T11:15:25.158Z,7.42
2023-01-13T11:18:05.243Z,7.47
2023-01-13T11:20:38.301Z,7.49
2023-01-13T11:23:28.719Z,7.54
2023-01-13T11:26:04.043Z,7.58
2023-01-13T11:28:44.337Z,7.62
2023-01-13T11:31:37.226Z,7.67
2023-01-13T11:34:25.267Z,7.71
2023-01-13T11:36:56.186Z,7.75
2023-01-13T11:39:50.613Z,7.80
2023-01-13T11:42:31.846Z,7.79
2023-01-13T11:45:06.044Z,7.79
2023-01-13T11:47:36.163Z,7.77
2023-01-13T11:50:13.885Z,7.75
2023-01-13T11:52:47.901Z,7.74
2023-01-13T11:55:15.850Z,7.77
2023-01-13T11:58:05.459Z,7.79
2023-01-13T12:00:56.111Z,7.81
2023-01-13T12:03:32.742Z,7.81
2023-01-13T12:06:16.034Z,7.83
2023-01-13T12:08:50.427Z,7.86
2023-01-13T12:12:04.585Z,7.85
2023-01-13T12:14:45.680Z,7.83
2023-01-13T12:17:32.016Z,7.86
2023-01-13T12:20:17.453Z,7.89
2023-01-13T12:22:47.804Z,7.91
2023-01-13T12:25:32.659Z,7.95
2023-01-13T12:28:23.240Z,8.04
2023-01-13T12:30:56.624Z,8.10
2023-01-13T12:33:45.737Z,8.20
2023-01-13T12:36:41.837Z,8.26
2023-01-13T12:39:29.828Z,8.28
2023-01-13T12:42:43.803Z,8.33
2023-01-13T12:45:11.671Z,8.36
2023-01-13T12:47:43.675Z,8.29
2023-01-13T12:50:26.510Z,8.27
2023-01-13T12:52:58.636Z,8.25
2023-01-13T12:55:33.329Z,8.23
2023-01-13T12:58:10.267Z,8.22
2023-01-13T13:00:41.325Z,8.19
2023-01-13T13:03:12.308Z,8.17
2023-01-13T13:05:51.899Z,8.12
2023-01-13T13:08:22.235Z,8.09
2023-01-13T13:11:34.907Z,8.06
2023-01-13T13:14:05.743Z,8.04
2023-01-13T13:16:52.808Z,8.07
2023-01-13T13:19:21.430Z,8.07
2023-01-13T13:22:18.028Z,8.09
2023-01-13T13:24:48.755Z,8.10
2023-01-13T13:27:20.743Z,8.08
2023-01-13T13:30:12.056Z,8.05
2023-01-13T13:32:49.003Z,8.03
2023-01-13T13:35:40.405Z,8.02
2023-01-13T13:38:53.001Z,7.99
2023-01-13T13:41:43.401Z,7.98
2023-01-13T13:45:06.669Z,7.96
2023-01-13T13:47:37.855Z,7.94
2023-01-13T13:50:20.420Z,7.91
2023-01-13T13:53:02.457Z,7.91
2023-01-13T13:55:30.396Z,7.90
2023-01-13T13:57:59.390Z,7.89
2023-01-13T14:00:29.974Z,7.89
2023-01-13T14:03:01.719Z,7.88
2023-01-13T14:05:35.179Z,7.90
2023-01-13T14:08:16.786Z,7.89
2023-01-13T14:10:46.305Z,7.88
2023-01-13T14:13:19.226Z,7.89
2023-01-13T14:15:49.470Z,7.89
2023-01-13T14:18:19.699Z,7.89
2023-01-13T14:21:25.939Z,7.89
2023-01-13T14:23:57.215Z,7.88
2023-01-13T14:26:27.799Z,7.82
2023-01-13T14:28:57.552Z,7.78
2023-01-13T14:31:26.181Z,7.74
2023-01-13T14:33:57.677Z,7.72
2023-01-13T14:36:36.824Z,7.71
2023-01-13T14:39:04.726Z,7.68
2023-01-13T14:41:49.004Z,7.71
2023-01-13T14:44:22.729Z,7.69
2023-01-13T14:46:51.566Z,7.68
2023-01-13T14:49:30.725Z,7.65
2023-01-13T14:52:22.331Z,7.67
2023-01-13T14:55:10.243Z,7.68
2023-01-13T14:57:39.835Z,7.65
2023-01-13T15:00:14.661Z,7.61
2023-01-13T15:02:57.909Z,7.60
2023-01-13T15:05:26.052Z,7.61
2023-01-13T15:08:13.927Z,7.62
2023-01-13T15:11:19.029Z,7.62
2023-01-13T15:13:53.749Z,7.60
2023-01-13T15:16:25.282Z,7.61
2023-01-13T15:18:54.879Z,7.61
2023-01-13T15:21:23.646Z,7.63
2023-01-13T15:23:52.622Z,7.62
2023-01-13T15:26:29.623Z,7.63
2023-01-13T15:28:59.444Z,7.64
2023-01-13T15:31:28.624Z,7.63
2023-01-13T15:33:57.027Z,7.61
2023-01-13T15:36:29.273Z,7.61
2023-01-13T15:38:57.840Z,7.61
2023-01-13T15:41:52.571Z,7.58
2023-01-13T15:44:39.326Z,7.59
2023-01-13T15:47:09.787Z,7.59
2023-01-13T15:49:44.120Z,7.59
2023-01-13T15:52:22.017Z,7.60
2023-01-13T15:54:51.180Z,7.61
2023-01-13T15:57:25.731Z,7.61
2023-01-13T15:59:56.811Z,7.62
2023-01-13T16:02:25.374Z,7.62
2023-01-13T16:04:55.841Z,7.62
2023-01-13T16:07:25.452Z,7.63
2023-01-13T16:09:53.520Z,7.63
2023-01-13T16:12:21.545Z,7.61
2023-01-13T16:14:49.559Z,7.61
2023-01-13T16:17:21.082Z,7.64
2023-01-13T16:19:49.691Z,7.64
2023-01-13T16:22:18.004Z,7.65
2023-01-13T16:24:46.738Z,7.66
2023-01-13T16:27:20.802Z,7.69
2023-01-13T16:29:50.025Z,7.72
2023-01-13T16:32:20.954Z,7.73
2023-01-13T16:34:50.483Z,7.73
2023-01-13T16:37:26.649Z,7.74
2023-01-13T16:39:55.039Z,7.75
2023-01-13T16:42:23.290Z,7.78
2023-01-13T16:44:53.029Z,7.79
2023-01-13T16:47:22.817Z,7.79
2023-01-13T16:49:51.402Z,7.79
2023-01-13T16:52:20.010Z,7.78
2023-01-13T16:54:48.296Z,7.80
2023-01-13T16:57:16.272Z,7.81
2023-01-13T16:59:44.341Z,7.82
2023-01-13T17:02:15.241Z,7.84
2023-01-13T17:04:43.834Z,7.87
2023-01-13T17:07:15.523Z,7.91
2023-01-13T17:09:43.613Z,7.89
2023-01-13T17:12:11.777Z,7.89
2023-01-13T17:14:40.786Z,7.89
2023-01-13T17:17:20.211Z,7.90
2023-01-13T17:19:48.514Z,7.90
2023-01-13T17:22:16.571Z,7.92
2023-01-13T17:24:45.104Z,7.90
2023-01-13T17:27:13.615Z,7.90
2023-01-13T17:29:41.648Z,7.89
2023-01-13T17:32:15.551Z,7.87
2023-01-13T17:34:45.196Z,7.88
2023-01-13T17:37:14.574Z,7.86
2023-01-13T17:39:44.292Z,7.84
2023-01-13T17:42:12.899Z,7.84
2023-01-13T17:44:42.137Z,7.83
2023-01-13T17:47:10.099Z,7.84
2023-01-13T17:49:38.065Z,7.84
2023-01-13T17:52:07.112Z,7.87
2023-01-13T17:54:35.185Z,7.84
2023-01-13T17:57:03.655Z,7.83
2023-01-13T17:59:32.274Z,7.82
2023-01-13T18:02:00.587Z,7.81
2023-01-13T18:04:28.768Z,7.80
2023-01-13T18:06:57.916Z,7.78
2023-01-13T18:09:27.408Z,7.78
2023-01-13T18:11:56.117Z,7.77
2023-01-13T18:14:24.566Z,7.75
2023-01-13T18:16:53.077Z,7.73
2023-01-13T18:19:39.693Z,7.72
2023-01-13T18:22:31.504Z,7.72
2023-01-13T18:25:18.376Z,7.70
2023-01-13T18:27:46.320Z,7.69
2023-01-13T18:30:15.463Z,7.67
2023-01-13T18:32:43.978Z,7.67
2023-01-13T18:35:11.798Z,7.67
2023-01-13T18:37:41.955Z,7.66
2023-01-13T18:40:13.687Z,7.63
2023-01-13T18:42:59.126Z,7.63
2023-01-13T18:45:29.489Z,7.62
2023-01-13T18:48:00.875Z,7.61
2023-01-13T18:50:29.743Z,7.60
2023-01-13T18:52:57.790Z,7.59
2023-01-13T18:55:25.792Z,7.58
2023-01-13T18:57:53.936Z,7.54
2023-01-13T19:04:36.159Z,7.54
2023-01-13T19:07:05.154Z,7.52
2023-01-13T19:09:32.976Z,7.49
2023-01-13T19:12:01.423Z,7.49
2023-01-13T19:14:37.399Z,7.49
2023-01-13T19:17:11.213Z,7.47
2023-01-13T19:19:44.787Z,7.46
2023-01-13T19:22:16.955Z,7.44
2023-01-13T19:24:44.890Z,7.45
2023-01-13T19:27:14.521Z,7.45
2023-01-13T19:29:52.002Z,7.44
2023-01-13T19:32:22.390Z,7.42
2023-01-13T19:34:51.244Z,7.41
2023-01-13T19:37:19.628Z,7.42
2023-01-13T19:39:47.412Z,7.44
2023-01-13T19:42:34.144Z,7.44
2023-01-13T19:45:20.505Z,7.44
2023-01-13T19:47:48.415Z,7.41
2023-01-13T19:50:16.424Z,7.40
2023-01-13T19:52:44.925Z,7.39
2023-01-13T19:55:12.897Z,7.43
2023-01-13T19:57:41.011Z,7.45
2023-01-13T20:00:10.959Z,7.45
2023-01-13T20:02:48.008Z,7.47
2023-01-13T20:05:21.234Z,7.48
2023-01-13T20:07:51.197Z,7.48
2023-01-13T20:10:20.820Z,7.48
2023-01-13T20:12:48.781Z,7.49
2023-01-13T20:15:16.788Z,7.50
2023-01-13T20:17:44.769Z,7.50
2023-01-13T20:20:15.088Z,7.52
2023-01-13T20:22:43.639Z,7.50
2023-01-13T20:25:16.787Z,7.51
2023-01-13T20:27:47.019Z,7.53
2023-01-13T20:30:15.744Z,7.53
2023-01-13T20:32:45.627Z,7.51
2023-01-13T20:35:14.371Z,7.49
2023-01-13T20:37:43.111Z,7.47
2023-01-13T20:40:14.684Z,7.50
2023-01-13T20:42:44.968Z,7.46
2023-01-13T20:45:17.744Z,7.46
2023-01-13T20:47:45.896Z,7.44
2023-01-13T20:50:15.637Z,7.44
2023-01-13T20:52:45.545Z,7.43
2023-01-13T20:55:14.219Z,7.43
2023-01-13T20:57:42.146Z,7.40
2023-01-13T21:00:10.950Z,7.37
2023-01-13T21:02:40.850Z,7.33
2023-01-13T21:05:09.979Z,7.26
2023-01-13T21:07:37.961Z,7.22
2023-01-13T21:10:07.975Z,7.19
2023-01-13T21:12:54.402Z,7.18
2023-01-13T21:15:22.870Z,7.12
2023-01-13T21:18:10.496Z,7.08
2023-01-13T21:20:39.331Z,7.05
2023-01-13T21:23:08.430Z,7.03
2023-01-13T21:25:39.498Z,7.00
2023-01-13T21:28:10.264Z,6.98
2023-01-13T21:30:39.196Z,6.96
2023-01-13T21:33:07.634Z,6.91
2023-01-13T21:35:38.214Z,6.88
2023-01-13T21:38:06.231Z,6.85
2023-01-13T21:40:34.312Z,6.83
2023-01-13T21:43:20.697Z,6.80
2023-01-13T21:46:07.387Z,6.80
2023-01-13T21:48:35.435Z,6.78
2023-01-13T21:51:03.497Z,6.77
2023-01-13T21:53:31.347Z,6.76
2023-01-13T21:55:59.227Z,6.73
2023-01-13T21:58:27.168Z,6.67
2023-01-13T22:00:55.553Z,6.66
2023-01-13T22:03:23.662Z,6.60
2023-01-13T22:05:56.130Z,6.54
2023-01-13T22:08:24.324Z,6.46
2023-01-13T22:10:58.136Z,6.40
2023-01-13T22:13:47.129Z,6.32
2023-01-13T22:16:16.028Z,6.24
2023-01-13T22:18:44.297Z,6.18
2023-01-13T22:21:13.073Z,6.11
2023-01-13T22:23:41.256Z,6.03
2023-01-13T22:26:09.836Z,5.96
2023-01-13T22:28:42.991Z,5.92
2023-01-13T22:31:18.933Z,5.87
2023-01-13T22:33:48.018Z,5.81
2023-01-13T22:36:15.934Z,5.76
2023-01-13T22:38:44.899Z,5.72
2023-01-13T22:41:13.583Z,5.68
2023-01-13T22:43:41.629Z,5.67
2023-01-13T22:46:11.711Z,5.63
2023-01-13T22:48:41.038Z,5.56
2023-01-13T22:51:13.937Z,5.50
2023-01-13T22:53:42.300Z,5.44
2023-01-13T22:56:16.644Z,5.40
2023-01-13T22:58:46.470Z,5.37
2023-01-13T23:01:16.817Z,5.37
2023-01-13T23:03:47.656Z,5.34
2023-01-13T23:06:18.173Z,5.34
2023-01-13T23:08:46.513Z,5.35
2023-01-13T23:11:17.972Z,5.35
2023-01-13T23:13:46.500Z,5.36
2023-01-13T23:16:17.140Z,5.40
2023-01-13T23:18:47.939Z,5.42
2023-01-13T23:21:19.281Z,5.44
2023-01-13T23:23:47.971Z,5.49
2023-01-13T23:26:17.023Z,5.47
2023-01-13T23:28:45.410Z,5.49
2023-01-13T23:31:19.811Z,5.48
2023-01-13T23:33:48.840Z,5.47
2023-01-13T23:36:23.370Z,5.45
2023-01-13T23:38:52.916Z,5.41
2023-01-13T23:41:24.113Z,5.39
2023-01-13T23:43:54.868Z,5.39
2023-01-13T23:46:23.554Z,5.39
2023-01-13T23:48:58.240Z,5.39
2023-01-13T23:51:32.164Z,5.40
2023-01-13T23:54:00.386Z,5.41
2023-01-13T23:56:30.697Z,5.39
2023-01-13T23:58:59.030Z,5.37
